sensor_id;sensor_type;location;lat;lon;timestamp;P1;durP1;ratioP1;P2;durP2;ratioP2
17658;SDS011;8948;51.534;8.262;2023-06-10T00:03:38;12.80;;;7.88;;
17658;SDS011;8948;51.534;8.262;2023-06-10T00:08:41;11.50;;;6.70;;
17658;SDS011;8948;51.534;8.262;2023-06-10T00:13:42;13.35;;;6.65;;
17658;SDS011;8948;51.534;8.262;2023-06-10T00:18:42;14.45;;;7.80;;
17658;SDS011;8948;51.534;8.262;2023-06-10T00:23:44;14.13;;;7.65;;
17658;SDS011;8948;51.534;8.262;2023-06-10T00:28:44;10.68;;;7.22;;
17658;SDS011;8948;51.534;8.262;2023-06-10T00:33:45;9.27;;;7.07;;
17658;SDS011;8948;51.534;8.262;2023-06-10T00:38:46;12.50;;;7.70;;
17658;SDS011;8948;51.534;8.262;2023-06-10T00:43:46;8.60;;;7.05;;
17658;SDS011;8948;51.534;8.262;2023-06-10T00:48:47;13.00;;;8.18;;
17658;SDS011;8948;51.534;8.262;2023-06-10T00:53:47;10.77;;;7.38;;
17658;SDS011;8948;51.534;8.262;2023-06-10T00:58:49;12.18;;;7.90;;
17658;SDS011;8948;51.534;8.262;2023-06-10T01:03:50;14.13;;;7.43;;
17658;SDS011;8948;51.534;8.262;2023-06-10T01:09:00;11.30;;;6.68;;
17658;SDS011;8948;51.534;8.262;2023-06-10T01:14:08;10.77;;;7.57;;
17658;SDS011;8948;51.534;8.262;2023-06-10T01:19:10;12.40;;;6.57;;
17658;SDS011;8948;51.534;8.262;2023-06-10T01:24:12;11.32;;;7.38;;
17658;SDS011;8948;51.534;8.262;2023-06-10T01:29:17;12.10;;;7.57;;
17658;SDS011;8948;51.534;8.262;2023-06-10T01:34:25;9.73;;;7.75;;
17658;SDS011;8948;51.534;8.262;2023-06-10T01:39:27;10.55;;;7.15;;
17658;SDS011;8948;51.534;8.262;2023-06-10T01:44:28;10.75;;;7.32;;
17658;SDS011;8948;51.534;8.262;2023-06-10T01:49:29;10.00;;;7.25;;
17658;SDS011;8948;51.534;8.262;2023-06-10T01:54:29;15.60;;;7.53;;
17658;SDS011;8948;51.534;8.262;2023-06-10T01:59:30;10.57;;;7.00;;
17658;SDS011;8948;51.534;8.262;2023-06-10T02:04:31;12.48;;;8.23;;
17658;SDS011;8948;51.534;8.262;2023-06-10T02:09:31;10.27;;;7.15;;
17658;SDS011;8948;51.534;8.262;2023-06-10T02:14:34;12.90;;;7.25;;
17658;SDS011;8948;51.534;8.262;2023-06-10T02:19:36;11.50;;;7.13;;
17658;SDS011;8948;51.534;8.262;2023-06-10T02:24:36;9.88;;;7.70;;
17658;SDS011;8948;51.534;8.262;2023-06-10T02:29:40;8.55;;;6.55;;
17658;SDS011;8948;51.534;8.262;2023-06-10T02:34:41;13.30;;;6.57;;
17658;SDS011;8948;51.534;8.262;2023-06-10T02:39:42;13.27;;;7.13;;
17658;SDS011;8948;51.534;8.262;2023-06-10T02:44:43;9.70;;;6.80;;
17658;SDS011;8948;51.534;8.262;2023-06-10T02:49:43;14.15;;;7.68;;
17658;SDS011;8948;51.534;8.262;2023-06-10T02:54:44;9.15;;;6.78;;
17658;SDS011;8948;51.534;8.262;2023-06-10T02:59:45;11.73;;;6.88;;
17658;SDS011;8948;51.534;8.262;2023-06-10T03:04:47;9.80;;;7.05;;
17658;SDS011;8948;51.534;8.262;2023-06-10T03:09:47;9.70;;;6.57;;
17658;SDS011;8948;51.534;8.262;2023-06-10T03:14:48;14.57;;;7.43;;
17658;SDS011;8948;51.534;8.262;2023-06-10T03:19:48;11.65;;;7.45;;
17658;SDS011;8948;51.534;8.262;2023-06-10T03:24:49;15.07;;;7.43;;
17658;SDS011;8948;51.534;8.262;2023-06-10T03:29:50;17.17;;;7.05;;
17658;SDS011;8948;51.534;8.262;2023-06-10T03:34:50;10.65;;;7.03;;
17658;SDS011;8948;51.534;8.262;2023-06-10T03:39:51;7.75;;;5.15;;
17658;SDS011;8948;51.534;8.262;2023-06-10T03:44:51;9.88;;;6.28;;
17658;SDS011;8948;51.534;8.262;2023-06-10T03:49:52;12.75;;;6.80;;
17658;SDS011;8948;51.534;8.262;2023-06-10T03:54:53;7.55;;;5.55;;
17658;SDS011;8948;51.534;8.262;2023-06-10T03:59:53;11.52;;;6.47;;
17658;SDS011;8948;51.534;8.262;2023-06-10T04:04:55;14.85;;;6.25;;
17658;SDS011;8948;51.534;8.262;2023-06-10T04:09:55;9.20;;;5.53;;
17658;SDS011;8948;51.534;8.262;2023-06-10T04:14:56;8.32;;;6.45;;
17658;SDS011;8948;51.534;8.262;2023-06-10T04:19:57;9.57;;;5.53;;
17658;SDS011;8948;51.534;8.262;2023-06-10T04:24:58;10.52;;;5.45;;
17658;SDS011;8948;51.534;8.262;2023-06-10T04:29:59;10.38;;;6.45;;
17658;SDS011;8948;51.534;8.262;2023-06-10T04:34:59;11.23;;;6.07;;
17658;SDS011;8948;51.534;8.262;2023-06-10T04:40:00;13.95;;;6.25;;
17658;SDS011;8948;51.534;8.262;2023-06-10T04:45:01;10.93;;;5.95;;
17658;SDS011;8948;51.534;8.262;2023-06-10T04:50:03;18.08;;;6.72;;
17658;SDS011;8948;51.534;8.262;2023-06-10T04:55:05;10.50;;;5.72;;
17658;SDS011;8948;51.534;8.262;2023-06-10T05:00:06;12.68;;;6.68;;
17658;SDS011;8948;51.534;8.262;2023-06-10T05:05:08;11.52;;;6.05;;
17658;SDS011;8948;51.534;8.262;2023-06-10T05:10:09;10.02;;;5.95;;
17658;SDS011;8948;51.534;8.262;2023-06-10T05:15:10;13.00;;;6.30;;
17658;SDS011;8948;51.534;8.262;2023-06-10T05:20:11;13.82;;;5.95;;
17658;SDS011;8948;51.534;8.262;2023-06-10T05:25:11;11.00;;;5.70;;
17658;SDS011;8948;51.534;8.262;2023-06-10T05:30:12;12.32;;;5.78;;
17658;SDS011;8948;51.534;8.262;2023-06-10T05:35:13;9.63;;;5.70;;
17658;SDS011;8948;51.534;8.262;2023-06-10T05:40:13;8.10;;;5.22;;
17658;SDS011;8948;51.534;8.262;2023-06-10T05:45:14;8.82;;;5.30;;
17658;SDS011;8948;51.534;8.262;2023-06-10T05:50:14;6.72;;;5.35;;
17658;SDS011;8948;51.534;8.262;2023-06-10T05:55:15;8.82;;;5.20;;
17658;SDS011;8948;51.534;8.262;2023-06-10T06:00:16;11.00;;;5.85;;
17658;SDS011;8948;51.534;8.262;2023-06-10T06:05:17;9.32;;;5.10;;
17658;SDS011;8948;51.534;8.262;2023-06-10T06:10:17;10.00;;;5.10;;
17658;SDS011;8948;51.534;8.262;2023-06-10T06:15:18;9.32;;;5.25;;
17658;SDS011;8948;51.534;8.262;2023-06-10T06:20:19;10.52;;;6.00;;
17658;SDS011;8948;51.534;8.262;2023-06-10T06:25:20;9.75;;;5.10;;
17658;SDS011;8948;51.534;8.262;2023-06-10T06:30:20;9.73;;;4.55;;
17658;SDS011;8948;51.534;8.262;2023-06-10T06:35:21;11.63;;;4.35;;
17658;SDS011;8948;51.534;8.262;2023-06-10T06:40:22;11.65;;;4.90;;
17658;SDS011;8948;51.534;8.262;2023-06-10T06:45:22;9.57;;;4.95;;
17658;SDS011;8948;51.534;8.262;2023-06-10T06:50:23;10.70;;;4.97;;
17658;SDS011;8948;51.534;8.262;2023-06-10T06:55:23;7.38;;;4.53;;
17658;SDS011;8948;51.534;8.262;2023-06-10T07:00:24;9.35;;;4.43;;
17658;SDS011;8948;51.534;8.262;2023-06-10T07:05:24;8.88;;;4.38;;
17658;SDS011;8948;51.534;8.262;2023-06-10T07:10:28;12.57;;;4.82;;
17658;SDS011;8948;51.534;8.262;2023-06-10T07:15:28;5.95;;;4.40;;
17658;SDS011;8948;51.534;8.262;2023-06-10T07:20:29;7.22;;;3.90;;
17658;SDS011;8948;51.534;8.262;2023-06-10T07:25:29;11.70;;;4.50;;
17658;SDS011;8948;51.534;8.262;2023-06-10T07:30:30;11.50;;;4.43;;
17658;SDS011;8948;51.534;8.262;2023-06-10T07:35:31;10.32;;;4.65;;
17658;SDS011;8948;51.534;8.262;2023-06-10T07:40:31;6.85;;;4.40;;
17658;SDS011;8948;51.534;8.262;2023-06-10T07:45:32;10.93;;;5.07;;
17658;SDS011;8948;51.534;8.262;2023-06-10T07:50:32;11.27;;;4.72;;
17658;SDS011;8948;51.534;8.262;2023-06-10T07:55:33;8.57;;;4.53;;
17658;SDS011;8948;51.534;8.262;2023-06-10T08:00:34;10.85;;;5.07;;
17658;SDS011;8948;51.534;8.262;2023-06-10T08:05:34;9.38;;;4.63;;
17658;SDS011;8948;51.534;8.262;2023-06-10T08:10:35;12.43;;;5.03;;
17658;SDS011;8948;51.534;8.262;2023-06-10T08:15:35;13.38;;;5.72;;
17658;SDS011;8948;51.534;8.262;2023-06-10T08:20:36;9.45;;;4.03;;
17658;SDS011;8948;51.534;8.262;2023-06-10T08:25:36;10.55;;;4.95;;
17658;SDS011;8948;51.534;8.262;2023-06-10T08:30:37;8.77;;;4.78;;
17658;SDS011;8948;51.534;8.262;2023-06-10T08:35:37;8.10;;;4.38;;
17658;SDS011;8948;51.534;8.262;2023-06-10T08:40:38;8.05;;;4.57;;
17658;SDS011;8948;51.534;8.262;2023-06-10T08:45:39;10.15;;;4.95;;
17658;SDS011;8948;51.534;8.262;2023-06-10T08:50:43;11.70;;;4.72;;
17658;SDS011;8948;51.534;8.262;2023-06-10T08:55:45;8.70;;;4.40;;
17658;SDS011;8948;51.534;8.262;2023-06-10T09:00:51;11.88;;;4.80;;
17658;SDS011;8948;51.534;8.262;2023-06-10T09:05:52;10.60;;;4.63;;
17658;SDS011;8948;51.534;8.262;2023-06-10T09:10:53;8.73;;;4.65;;
17658;SDS011;8948;51.534;8.262;2023-06-10T09:15:54;15.82;;;6.35;;
17658;SDS011;8948;51.534;8.262;2023-06-10T09:20:56;9.27;;;5.18;;
17658;SDS011;8948;51.534;8.262;2023-06-10T09:25:57;10.77;;;5.25;;
17658;SDS011;8948;51.534;8.262;2023-06-10T09:31:02;10.00;;;5.28;;
17658;SDS011;8948;51.534;8.262;2023-06-10T09:36:05;6.65;;;4.32;;
17658;SDS011;8948;51.534;8.262;2023-06-10T09:41:06;6.47;;;4.75;;
17658;SDS011;8948;51.534;8.262;2023-06-10T09:46:07;12.00;;;5.45;;
17658;SDS011;8948;51.534;8.262;2023-06-10T09:51:14;17.55;;;5.20;;
17658;SDS011;8948;51.534;8.262;2023-06-10T09:56:17;9.20;;;4.88;;
17658;SDS011;8948;51.534;8.262;2023-06-10T10:01:18;12.15;;;4.53;;
17658;SDS011;8948;51.534;8.262;2023-06-10T10:06:19;7.25;;;4.85;;
17658;SDS011;8948;51.534;8.262;2023-06-10T10:11:21;8.88;;;4.68;;
17658;SDS011;8948;51.534;8.262;2023-06-10T10:16:27;9.23;;;5.07;;
17658;SDS011;8948;51.534;8.262;2023-06-10T10:21:34;8.93;;;5.38;;
17658;SDS011;8948;51.534;8.262;2023-06-10T10:26:39;8.40;;;5.35;;
17658;SDS011;8948;51.534;8.262;2023-06-10T10:31:41;6.72;;;4.90;;
17658;SDS011;8948;51.534;8.262;2023-06-10T10:36:46;12.30;;;5.35;;
17658;SDS011;8948;51.534;8.262;2023-06-10T10:41:48;10.23;;;4.78;;
17658;SDS011;8948;51.534;8.262;2023-06-10T10:46:50;8.85;;;4.85;;
17658;SDS011;8948;51.534;8.262;2023-06-10T10:51:57;10.85;;;5.15;;
17658;SDS011;8948;51.534;8.262;2023-06-10T10:57:09;15.73;;;5.75;;
17658;SDS011;8948;51.534;8.262;2023-06-10T11:02:18;9.65;;;5.07;;
17658;SDS011;8948;51.534;8.262;2023-06-10T11:07:32;8.75;;;5.05;;
17658;SDS011;8948;51.534;8.262;2023-06-10T11:28:32;14.27;;;4.55;;
17658;SDS011;8948;51.534;8.262;2023-06-10T11:33:33;11.10;;;5.00;;
17658;SDS011;8948;51.534;8.262;2023-06-10T11:38:38;8.30;;;4.72;;
17658;SDS011;8948;51.534;8.262;2023-06-10T11:43:43;9.32;;;4.80;;
17658;SDS011;8948;51.534;8.262;2023-06-10T11:48:51;7.75;;;4.53;;
17658;SDS011;8948;51.534;8.262;2023-06-10T11:53:53;5.85;;;4.50;;
17658;SDS011;8948;51.534;8.262;2023-06-10T11:59:03;11.25;;;4.82;;
17658;SDS011;8948;51.534;8.262;2023-06-10T12:04:14;10.95;;;4.93;;
17658;SDS011;8948;51.534;8.262;2023-06-10T12:09:23;9.18;;;5.10;;
17658;SDS011;8948;51.534;8.262;2023-06-10T12:19:54;8.68;;;5.07;;
17658;SDS011;8948;51.534;8.262;2023-06-10T12:24:58;7.47;;;4.72;;
17658;SDS011;8948;51.534;8.262;2023-06-10T12:30:02;12.45;;;5.40;;
17658;SDS011;8948;51.534;8.262;2023-06-10T12:35:04;9.10;;;4.38;;
17658;SDS011;8948;51.534;8.262;2023-06-10T12:40:06;9.27;;;4.85;;
17658;SDS011;8948;51.534;8.262;2023-06-10T12:45:08;10.85;;;4.85;;
17658;SDS011;8948;51.534;8.262;2023-06-10T12:50:10;9.15;;;5.13;;
17658;SDS011;8948;51.534;8.262;2023-06-10T12:55:12;8.07;;;4.90;;
17658;SDS011;8948;51.534;8.262;2023-06-10T13:00:12;12.13;;;4.55;;
17658;SDS011;8948;51.534;8.262;2023-06-10T13:05:14;8.45;;;4.57;;
17658;SDS011;8948;51.534;8.262;2023-06-10T13:10:14;7.15;;;4.35;;
17658;SDS011;8948;51.534;8.262;2023-06-10T13:15:16;7.90;;;4.88;;
17658;SDS011;8948;51.534;8.262;2023-06-10T13:20:17;7.15;;;4.15;;
17658;SDS011;8948;51.534;8.262;2023-06-10T13:25:19;9.15;;;4.70;;
17658;SDS011;8948;51.534;8.262;2023-06-10T13:30:19;7.78;;;4.45;;
17658;SDS011;8948;51.534;8.262;2023-06-10T13:35:20;19.83;;;4.72;;
17658;SDS011;8948;51.534;8.262;2023-06-10T13:40:21;14.23;;;4.25;;
17658;SDS011;8948;51.534;8.262;2023-06-10T13:45:22;13.82;;;4.40;;
17658;SDS011;8948;51.534;8.262;2023-06-10T13:50:22;8.52;;;3.72;;
17658;SDS011;8948;51.534;8.262;2023-06-10T13:55:23;10.55;;;4.50;;
17658;SDS011;8948;51.534;8.262;2023-06-10T14:00:24;9.48;;;4.35;;
17658;SDS011;8948;51.534;8.262;2023-06-10T14:05:27;14.13;;;4.22;;
17658;SDS011;8948;51.534;8.262;2023-06-10T14:10:27;9.75;;;4.43;;
17658;SDS011;8948;51.534;8.262;2023-06-10T14:15:28;7.10;;;4.28;;
17658;SDS011;8948;51.534;8.262;2023-06-10T14:20:29;10.82;;;4.50;;
17658;SDS011;8948;51.534;8.262;2023-06-10T14:25:31;10.07;;;4.15;;
17658;SDS011;8948;51.534;8.262;2023-06-10T14:30:32;11.13;;;4.50;;
17658;SDS011;8948;51.534;8.262;2023-06-10T14:35:32;9.90;;;4.13;;
17658;SDS011;8948;51.534;8.262;2023-06-10T14:40:33;13.38;;;4.20;;
17658;SDS011;8948;51.534;8.262;2023-06-10T14:45:33;9.85;;;4.10;;
17658;SDS011;8948;51.534;8.262;2023-06-10T14:50:37;10.68;;;4.05;;
17658;SDS011;8948;51.534;8.262;2023-06-10T14:55:38;8.27;;;4.20;;
17658;SDS011;8948;51.534;8.262;2023-06-10T15:00:39;5.82;;;3.85;;
17658;SDS011;8948;51.534;8.262;2023-06-10T15:05:40;8.30;;;4.28;;
17658;SDS011;8948;51.534;8.262;2023-06-10T15:10:41;9.82;;;4.20;;
17658;SDS011;8948;51.534;8.262;2023-06-10T15:15:42;6.15;;;4.35;;
17658;SDS011;8948;51.534;8.262;2023-06-10T15:20:46;8.70;;;3.90;;
17658;SDS011;8948;51.534;8.262;2023-06-10T15:26:01;13.90;;;3.80;;
17658;SDS011;8948;51.534;8.262;2023-06-10T15:32:07;6.82;;;4.20;;
17658;SDS011;8948;51.534;8.262;2023-06-10T15:37:14;12.10;;;4.30;;
17658;SDS011;8948;51.534;8.262;2023-06-10T15:42:15;12.40;;;4.68;;
17658;SDS011;8948;51.534;8.262;2023-06-10T15:47:16;6.28;;;3.85;;
17658;SDS011;8948;51.534;8.262;2023-06-10T15:52:16;10.75;;;4.35;;
17658;SDS011;8948;51.534;8.262;2023-06-10T15:57:17;7.32;;;4.32;;
17658;SDS011;8948;51.534;8.262;2023-06-10T16:02:19;7.07;;;4.50;;
17658;SDS011;8948;51.534;8.262;2023-06-10T16:07:20;18.13;;;4.63;;
17658;SDS011;8948;51.534;8.262;2023-06-10T16:12:20;10.80;;;5.05;;
17658;SDS011;8948;51.534;8.262;2023-06-10T16:17:21;9.73;;;4.80;;
17658;SDS011;8948;51.534;8.262;2023-06-10T16:22:21;10.25;;;4.90;;
17658;SDS011;8948;51.534;8.262;2023-06-10T16:27:22;7.72;;;4.75;;
17658;SDS011;8948;51.534;8.262;2023-06-10T16:32:24;8.82;;;5.50;;
17658;SDS011;8948;51.534;8.262;2023-06-10T16:37:25;12.25;;;4.97;;
17658;SDS011;8948;51.534;8.262;2023-06-10T16:42:25;10.57;;;6.30;;
17658;SDS011;8948;51.534;8.262;2023-06-10T16:47:26;10.75;;;5.85;;
17658;SDS011;8948;51.534;8.262;2023-06-10T16:52:26;10.45;;;5.40;;
17658;SDS011;8948;51.534;8.262;2023-06-10T16:57:27;12.27;;;5.15;;
17658;SDS011;8948;51.534;8.262;2023-06-10T17:02:28;8.38;;;5.18;;
17658;SDS011;8948;51.534;8.262;2023-06-10T17:07:28;8.10;;;4.47;;
17658;SDS011;8948;51.534;8.262;2023-06-10T17:12:30;11.93;;;5.15;;
17658;SDS011;8948;51.534;8.262;2023-06-10T17:17:30;7.82;;;4.80;;
17658;SDS011;8948;51.534;8.262;2023-06-10T17:22:31;7.53;;;4.97;;
17658;SDS011;8948;51.534;8.262;2023-06-10T17:27:31;11.85;;;4.93;;
17658;SDS011;8948;51.534;8.262;2023-06-10T17:32:32;8.77;;;4.70;;
17658;SDS011;8948;51.534;8.262;2023-06-10T17:37:33;7.75;;;4.80;;
17658;SDS011;8948;51.534;8.262;2023-06-10T17:42:33;10.88;;;4.85;;
17658;SDS011;8948;51.534;8.262;2023-06-10T17:47:34;7.93;;;4.63;;
17658;SDS011;8948;51.534;8.262;2023-06-10T17:52:35;6.65;;;4.32;;
17658;SDS011;8948;51.534;8.262;2023-06-10T17:57:35;5.28;;;4.15;;
17658;SDS011;8948;51.534;8.262;2023-06-10T18:02:36;7.35;;;4.43;;
17658;SDS011;8948;51.534;8.262;2023-06-10T18:07:39;8.88;;;4.65;;
17658;SDS011;8948;51.534;8.262;2023-06-10T18:12:39;10.15;;;4.68;;
17658;SDS011;8948;51.534;8.262;2023-06-10T18:17:40;9.13;;;5.10;;
17658;SDS011;8948;51.534;8.262;2023-06-10T18:22:40;7.60;;;4.60;;
17658;SDS011;8948;51.534;8.262;2023-06-10T18:27:41;8.05;;;4.85;;
17658;SDS011;8948;51.534;8.262;2023-06-10T18:32:41;8.38;;;4.53;;
17658;SDS011;8948;51.534;8.262;2023-06-10T18:37:42;7.05;;;4.30;;
17658;SDS011;8948;51.534;8.262;2023-06-10T18:42:43;6.50;;;4.38;;
17658;SDS011;8948;51.534;8.262;2023-06-10T18:47:43;5.95;;;4.05;;
17658;SDS011;8948;51.534;8.262;2023-06-10T18:52:44;6.90;;;4.65;;
17658;SDS011;8948;51.534;8.262;2023-06-10T18:57:45;8.20;;;4.45;;
17658;SDS011;8948;51.534;8.262;2023-06-10T19:02:45;6.20;;;4.38;;
17658;SDS011;8948;51.534;8.262;2023-06-10T19:07:46;10.20;;;4.85;;
17658;SDS011;8948;51.534;8.262;2023-06-10T19:12:46;6.85;;;4.35;;
17658;SDS011;8948;51.534;8.262;2023-06-10T19:17:47;7.32;;;4.55;;
17658;SDS011;8948;51.534;8.262;2023-06-10T19:22:47;11.65;;;4.60;;
17658;SDS011;8948;51.534;8.262;2023-06-10T19:27:48;7.22;;;4.80;;
17658;SDS011;8948;51.534;8.262;2023-06-10T19:32:48;10.88;;;4.55;;
17658;SDS011;8948;51.534;8.262;2023-06-10T19:37:49;8.52;;;4.90;;
17658;SDS011;8948;51.534;8.262;2023-06-10T19:42:50;14.40;;;4.88;;
17658;SDS011;8948;51.534;8.262;2023-06-10T19:47:51;8.60;;;4.88;;
17658;SDS011;8948;51.534;8.262;2023-06-10T19:52:51;7.20;;;5.18;;
17658;SDS011;8948;51.534;8.262;2023-06-10T19:57:52;16.98;;;5.43;;
17658;SDS011;8948;51.534;8.262;2023-06-10T20:02:55;11.18;;;5.70;;
17658;SDS011;8948;51.534;8.262;2023-06-10T20:07:56;8.93;;;5.82;;
17658;SDS011;8948;51.534;8.262;2023-06-10T20:12:57;17.02;;;5.47;;
17658;SDS011;8948;51.534;8.262;2023-06-10T20:17:57;10.18;;;6.00;;
17658;SDS011;8948;51.534;8.262;2023-06-10T20:22:58;7.82;;;5.22;;
17658;SDS011;8948;51.534;8.262;2023-06-10T20:27:59;8.02;;;5.85;;
17658;SDS011;8948;51.534;8.262;2023-06-10T20:33:00;6.30;;;5.30;;
17658;SDS011;8948;51.534;8.262;2023-06-10T20:38:00;8.80;;;5.90;;
17658;SDS011;8948;51.534;8.262;2023-06-10T20:43:01;7.90;;;5.13;;
17658;SDS011;8948;51.534;8.262;2023-06-10T20:48:01;14.50;;;5.70;;
17658;SDS011;8948;51.534;8.262;2023-06-10T20:53:02;10.25;;;5.53;;
17658;SDS011;8948;51.534;8.262;2023-06-10T20:58:03;6.78;;;5.53;;
17658;SDS011;8948;51.534;8.262;2023-06-10T21:03:03;11.35;;;6.00;;
17658;SDS011;8948;51.534;8.262;2023-06-10T21:08:04;9.73;;;5.80;;
17658;SDS011;8948;51.534;8.262;2023-06-10T21:13:04;12.38;;;5.97;;
17658;SDS011;8948;51.534;8.262;2023-06-10T21:18:05;12.60;;;5.82;;
17658;SDS011;8948;51.534;8.262;2023-06-10T21:23:06;7.07;;;5.80;;
17658;SDS011;8948;51.534;8.262;2023-06-10T21:28:07;9.23;;;5.30;;
17658;SDS011;8948;51.534;8.262;2023-06-10T21:33:07;7.68;;;5.78;;
17658;SDS011;8948;51.534;8.262;2023-06-10T21:38:08;11.20;;;6.15;;
17658;SDS011;8948;51.534;8.262;2023-06-10T21:43:08;9.98;;;6.68;;
17658;SDS011;8948;51.534;8.262;2023-06-10T21:48:09;11.60;;;6.30;;
17658;SDS011;8948;51.534;8.262;2023-06-10T21:53:10;10.75;;;6.18;;
17658;SDS011;8948;51.534;8.262;2023-06-10T21:58:11;9.52;;;6.00;;
17658;SDS011;8948;51.534;8.262;2023-06-10T22:03:11;8.43;;;5.88;;
17658;SDS011;8948;51.534;8.262;2023-06-10T22:08:12;10.90;;;6.00;;
17658;SDS011;8948;51.534;8.262;2023-06-10T22:13:13;11.23;;;5.97;;
17658;SDS011;8948;51.534;8.262;2023-06-10T22:18:14;13.02;;;6.18;;
17658;SDS011;8948;51.534;8.262;2023-06-10T22:23:18;13.43;;;6.18;;
17658;SDS011;8948;51.534;8.262;2023-06-10T22:28:19;11.25;;;6.30;;
17658;SDS011;8948;51.534;8.262;2023-06-10T22:33:20;8.88;;;6.72;;
17658;SDS011;8948;51.534;8.262;2023-06-10T22:38:21;10.63;;;6.38;;
17658;SDS011;8948;51.534;8.262;2023-06-10T22:43:21;8.82;;;6.10;;
17658;SDS011;8948;51.534;8.262;2023-06-10T22:48:22;17.05;;;7.13;;
17658;SDS011;8948;51.534;8.262;2023-06-10T22:53:22;8.65;;;6.45;;
17658;SDS011;8948;51.534;8.262;2023-06-10T22:58:23;10.48;;;6.15;;
17658;SDS011;8948;51.534;8.262;2023-06-10T23:03:24;11.02;;;7.18;;
17658;SDS011;8948;51.534;8.262;2023-06-10T23:08:25;11.50;;;7.05;;
17658;SDS011;8948;51.534;8.262;2023-06-10T23:13:25;11.15;;;6.70;;
17658;SDS011;8948;51.534;8.262;2023-06-10T23:18:26;9.02;;;6.78;;
17658;SDS011;8948;51.534;8.262;2023-06-10T23:23:26;9.13;;;6.47;;
17658;SDS011;8948;51.534;8.262;2023-06-10T23:28:36;9.77;;;6.68;;
17658;SDS011;8948;51.534;8.262;2023-06-10T23:33:37;8.48;;;6.78;;
17658;SDS011;8948;51.534;8.262;2023-06-10T23:38:38;9.63;;;6.78;;
17658;SDS011;8948;51.534;8.262;2023-06-10T23:43:39;10.57;;;6.93;;
17658;SDS011;8948;51.534;8.262;2023-06-10T23:48:40;11.57;;;6.85;;
17658;SDS011;8948;51.534;8.262;2023-06-10T23:53:40;10.93;;;6.88;;
17658;SDS011;8948;51.534;8.262;2023-06-10T23:58:41;9.13;;;6.90;;
